sensor_id;sensor_type;location;lat;lon;timestamp;pressure;altitude;pressure_sealevel;temperature;humidity
20003;BME280;10162;41.600;23.806;2022-08-07T00:00:03;94834.72;;;19.86;91.54
20003;BME280;10162;41.600;23.806;2022-08-07T00:06:25;94853.97;;;19.71;93.90
20003;BME280;10162;41.600;23.806;2022-08-07T00:08:51;94861.91;;;20.29;91.15
20003;BME280;10162;41.600;23.806;2022-08-07T00:15:05;94869.25;;;20.01;92.77
20003;BME280;10162;41.600;23.806;2022-08-07T00:17:30;94846.56;;;19.31;96.33
20003;BME280;10162;41.600;23.806;2022-08-07T00:19:56;94849.38;;;19.52;94.84
20003;BME280;10162;41.600;23.806;2022-08-07T00:26:10;94852.63;;;19.64;94.05
20003;BME280;10162;41.600;23.806;2022-08-07T00:28:36;94848.44;;;19.78;92.86
20003;BME280;10162;41.600;23.806;2022-08-07T00:31:06;94848.34;;;19.53;94.36
20003;BME280;10162;41.600;23.806;2022-08-07T00:33:34;94850.97;;;19.48;95.10
20003;BME280;10162;41.600;23.806;2022-08-07T00:36:00;94858.03;;;19.84;92.61
20003;BME280;10162;41.600;23.806;2022-08-07T00:38:25;94845.28;;;19.81;93.02
20003;BME280;10162;41.600;23.806;2022-08-07T00:40:51;94854.69;;;19.20;97.31
20003;BME280;10162;41.600;23.806;2022-08-07T00:47:05;94857.84;;;19.49;95.23
20003;BME280;10162;41.600;23.806;2022-08-07T00:49:33;94827.66;;;19.60;93.70
20003;BME280;10162;41.600;23.806;2022-08-07T00:55:47;94848.69;;;19.29;95.86
20003;BME280;10162;41.600;23.806;2022-08-07T00:58:13;94827.28;;;19.41;94.81
20003;BME280;10162;41.600;23.806;2022-08-07T01:00:38;94826.03;;;19.49;94.68
20003;BME280;10162;41.600;23.806;2022-08-07T01:06:52;94807.78;;;18.78;99.31
20003;BME280;10162;41.600;23.806;2022-08-07T01:09:18;94832.75;;;18.87;99.65
20003;BME280;10162;41.600;23.806;2022-08-07T01:15:45;94836.72;;;18.85;99.32
20003;BME280;10162;41.600;23.806;2022-08-07T01:18:13;94823.75;;;18.88;99.18
20003;BME280;10162;41.600;23.806;2022-08-07T01:20:44;94827.34;;;18.72;100.00
20003;BME280;10162;41.600;23.806;2022-08-07T01:26:58;94844.50;;;18.70;100.00
20003;BME280;10162;41.600;23.806;2022-08-07T01:29:26;94825.13;;;18.64;100.00
20003;BME280;10162;41.600;23.806;2022-08-07T01:35:39;94843.47;;;18.71;100.00
20003;BME280;10162;41.600;23.806;2022-08-07T01:38:06;94833.16;;;18.74;99.77
20003;BME280;10162;41.600;23.806;2022-08-07T01:40:32;94819.31;;;18.99;97.93
20003;BME280;10162;41.600;23.806;2022-08-07T01:46:47;94832.84;;;18.66;99.93
20003;BME280;10162;41.600;23.806;2022-08-07T01:49:13;94827.09;;;18.52;100.00
20003;BME280;10162;41.600;23.806;2022-08-07T01:55:36;94839.97;;;18.38;100.00
20003;BME280;10162;41.600;23.806;2022-08-07T01:58:07;94839.16;;;18.38;100.00
20003;BME280;10162;41.600;23.806;2022-08-07T02:00:35;94839.97;;;18.38;100.00
20003;BME280;10162;41.600;23.806;2022-08-07T02:06:49;94829.28;;;18.28;100.00
20003;BME280;10162;41.600;23.806;2022-08-07T02:09:17;94843.38;;;18.61;100.00
20003;BME280;10162;41.600;23.806;2022-08-07T02:15:46;94817.63;;;18.29;100.00
20003;BME280;10162;41.600;23.806;2022-08-07T02:18:14;94828.34;;;18.39;100.00
20003;BME280;10162;41.600;23.806;2022-08-07T02:20:41;94832.91;;;18.49;100.00
20003;BME280;10162;41.600;23.806;2022-08-07T02:27:00;94840.63;;;18.50;100.00
20003;BME280;10162;41.600;23.806;2022-08-07T02:29:27;94832.59;;;17.92;100.00
20003;BME280;10162;41.600;23.806;2022-08-07T02:35:40;94834.88;;;18.32;100.00
20003;BME280;10162;41.600;23.806;2022-08-07T02:38:10;94833.31;;;18.36;100.00
20003;BME280;10162;41.600;23.806;2022-08-07T02:40:37;94828.19;;;18.51;100.00
20003;BME280;10162;41.600;23.806;2022-08-07T02:46:52;94825.00;;;18.22;100.00
20003;BME280;10162;41.600;23.806;2022-08-07T02:49:20;94821.06;;;18.03;100.00
20003;BME280;10162;41.600;23.806;2022-08-07T02:55:37;94827.78;;;17.89;100.00
20003;BME280;10162;41.600;23.806;2022-08-07T02:58:06;94844.06;;;18.02;100.00
20003;BME280;10162;41.600;23.806;2022-08-07T03:00:39;94848.84;;;18.27;100.00
20003;BME280;10162;41.600;23.806;2022-08-07T03:03:25;94838.72;;;17.97;100.00
20003;BME280;10162;41.600;23.806;2022-08-07T03:05:53;94846.13;;;17.57;100.00
20003;BME280;10162;41.600;23.806;2022-08-07T03:08:20;94838.69;;;17.70;100.00
20003;BME280;10162;41.600;23.806;2022-08-07T03:10:49;94841.09;;;17.94;100.00
20003;BME280;10162;41.600;23.806;2022-08-07T03:16:10;94820.69;;;17.94;100.00
20003;BME280;10162;41.600;23.806;2022-08-07T03:18:37;94831.97;;;17.85;100.00
20003;BME280;10162;41.600;23.806;2022-08-07T03:21:32;94846.59;;;17.92;100.00
20003;BME280;10162;41.600;23.806;2022-08-07T03:23:59;94833.56;;;17.86;100.00
20003;BME280;10162;41.600;23.806;2022-08-07T03:26:29;94842.47;;;18.01;100.00
20003;BME280;10162;41.600;23.806;2022-08-07T03:28:59;94836.94;;;18.03;100.00
20003;BME280;10162;41.600;23.806;2022-08-07T03:31:54;94839.59;;;18.03;100.00
20003;BME280;10162;41.600;23.806;2022-08-07T03:34:21;94840.06;;;17.78;100.00
20003;BME280;10162;41.600;23.806;2022-08-07T03:36:49;94847.34;;;17.88;100.00
20003;BME280;10162;41.600;23.806;2022-08-07T03:39:16;94825.00;;;17.79;100.00
20003;BME280;10162;41.600;23.806;2022-08-07T03:44:39;94851.16;;;17.75;100.00
20003;BME280;10162;41.600;23.806;2022-08-07T03:47:07;94858.25;;;18.18;100.00
20003;BME280;10162;41.600;23.806;2022-08-07T03:49:34;94842.59;;;17.68;100.00
20003;BME280;10162;41.600;23.806;2022-08-07T03:55:39;94861.91;;;17.68;100.00
20003;BME280;10162;41.600;23.806;2022-08-07T03:58:07;94872.13;;;18.03;100.00
20003;BME280;10162;41.600;23.806;2022-08-07T04:00:37;94869.03;;;17.68;100.00
20003;BME280;10162;41.600;23.806;2022-08-07T04:03:26;94877.25;;;18.10;100.00
20003;BME280;10162;41.600;23.806;2022-08-07T04:05:52;94874.28;;;17.85;100.00
20003;BME280;10162;41.600;23.806;2022-08-07T04:08:22;94875.47;;;17.94;100.00
20003;BME280;10162;41.600;23.806;2022-08-07T04:10:52;94873.16;;;18.02;100.00
20003;BME280;10162;41.600;23.806;2022-08-07T04:13:47;94888.41;;;18.17;100.00
20003;BME280;10162;41.600;23.806;2022-08-07T04:16:14;94884.03;;;18.49;100.00
20003;BME280;10162;41.600;23.806;2022-08-07T04:18:40;94880.59;;;18.27;100.00
20003;BME280;10162;41.600;23.806;2022-08-07T04:21:07;94885.78;;;18.66;100.00
20003;BME280;10162;41.600;23.806;2022-08-07T04:23:33;94883.97;;;18.98;100.00
20003;BME280;10162;41.600;23.806;2022-08-07T04:26:00;94884.25;;;19.38;96.56
20003;BME280;10162;41.600;23.806;2022-08-07T04:28:26;94890.38;;;19.39;98.17
20003;BME280;10162;41.600;23.806;2022-08-07T04:30:54;94886.13;;;19.38;98.10
20003;BME280;10162;41.600;23.806;2022-08-07T04:33:23;94897.44;;;19.65;96.22
20003;BME280;10162;41.600;23.806;2022-08-07T04:35:51;94893.03;;;19.81;94.18
20003;BME280;10162;41.600;23.806;2022-08-07T04:38:21;94888.84;;;19.90;92.92
20003;BME280;10162;41.600;23.806;2022-08-07T04:40:50;94900.59;;;20.04;92.72
20003;BME280;10162;41.600;23.806;2022-08-07T04:43:38;94900.22;;;20.43;90.82
20003;BME280;10162;41.600;23.806;2022-08-07T04:57:32;94919.47;;;21.06;88.24
20003;BME280;10162;41.600;23.806;2022-08-07T05:00:08;94916.75;;;20.75;89.37
20003;BME280;10162;41.600;23.806;2022-08-07T05:08:41;94907.81;;;21.17;86.25
20003;BME280;10162;41.600;23.806;2022-08-07T05:11:45;94914.19;;;21.21;86.61
20003;BME280;10162;41.600;23.806;2022-08-07T05:14:19;94901.41;;;21.43;85.23
20003;BME280;10162;41.600;23.806;2022-08-07T05:16:51;94904.59;;;21.55;84.89
20003;BME280;10162;41.600;23.806;2022-08-07T05:19:20;94915.19;;;21.70;84.10
20003;BME280;10162;41.600;23.806;2022-08-07T05:21:57;94904.78;;;21.89;81.48
20003;BME280;10162;41.600;23.806;2022-08-07T05:24:25;94911.44;;;22.02;81.54
20003;BME280;10162;41.600;23.806;2022-08-07T05:26:55;94929.13;;;22.42;79.19
20003;BME280;10162;41.600;23.806;2022-08-07T05:29:22;94927.75;;;22.54;78.39
20003;BME280;10162;41.600;23.806;2022-08-07T05:31:53;94926.13;;;22.58;78.43
20003;BME280;10162;41.600;23.806;2022-08-07T05:34:25;94927.22;;;22.52;78.62
20003;BME280;10162;41.600;23.806;2022-08-07T05:36:53;94934.88;;;22.74;76.97
20003;BME280;10162;41.600;23.806;2022-08-07T05:39:29;94932.16;;;22.79;76.90
20003;BME280;10162;41.600;23.806;2022-08-07T05:42:18;94941.06;;;23.08;76.22
20003;BME280;10162;41.600;23.806;2022-08-07T05:44:45;94934.16;;;23.02;76.29
20003;BME280;10162;41.600;23.806;2022-08-07T05:47:11;94934.56;;;23.20;75.42
20003;BME280;10162;41.600;23.806;2022-08-07T05:49:38;94940.56;;;23.40;73.14
20003;BME280;10162;41.600;23.806;2022-08-07T05:55:04;94933.81;;;23.82;72.52
20003;BME280;10162;41.600;23.806;2022-08-07T05:57:31;94936.19;;;23.83;72.36
20003;BME280;10162;41.600;23.806;2022-08-07T05:59:59;94941.06;;;23.47;73.80
20003;BME280;10162;41.600;23.806;2022-08-07T06:02:50;94931.06;;;23.63;74.03
20003;BME280;10162;41.600;23.806;2022-08-07T06:05:17;94933.38;;;23.99;72.78
20003;BME280;10162;41.600;23.806;2022-08-07T06:07:48;94927.44;;;23.78;74.24
20003;BME280;10162;41.600;23.806;2022-08-07T06:10:14;94925.72;;;23.92;74.52
20003;BME280;10162;41.600;23.806;2022-08-07T06:12:46;94928.97;;;24.13;74.33
20003;BME280;10162;41.600;23.806;2022-08-07T06:15:14;94932.63;;;24.17;74.41
20003;BME280;10162;41.600;23.806;2022-08-07T06:17:42;94919.03;;;24.42;73.74
20003;BME280;10162;41.600;23.806;2022-08-07T06:20:09;94919.09;;;24.37;73.39
20003;BME280;10162;41.600;23.806;2022-08-07T06:22:37;94933.81;;;24.77;72.58
20003;BME280;10162;41.600;23.806;2022-08-07T06:25:16;94926.72;;;24.86;71.50
20003;BME280;10162;41.600;23.806;2022-08-07T06:27:42;94927.41;;;25.16;70.38
20003;BME280;10162;41.600;23.806;2022-08-07T06:30:08;94914.88;;;25.30;70.06
20003;BME280;10162;41.600;23.806;2022-08-07T06:32:36;94915.81;;;25.20;71.46
20003;BME280;10162;41.600;23.806;2022-08-07T06:35:02;94910.47;;;25.52;67.91
20003;BME280;10162;41.600;23.806;2022-08-07T06:37:29;94904.22;;;25.62;68.78
20003;BME280;10162;41.600;23.806;2022-08-07T06:39:55;94913.34;;;24.86;70.20
20003;BME280;10162;41.600;23.806;2022-08-07T06:42:56;94916.53;;;25.77;68.59
20003;BME280;10162;41.600;23.806;2022-08-07T06:45:35;94914.00;;;26.13;62.56
20003;BME280;10162;41.600;23.806;2022-08-07T06:48:01;94908.94;;;26.11;62.95
20003;BME280;10162;41.600;23.806;2022-08-07T06:50:35;94905.69;;;26.28;62.42
20003;BME280;10162;41.600;23.806;2022-08-07T06:53:20;94903.75;;;26.56;59.66
20003;BME280;10162;41.600;23.806;2022-08-07T06:55:48;94903.47;;;26.71;57.11
20003;BME280;10162;41.600;23.806;2022-08-07T06:58:14;94901.88;;;27.06;55.92
20003;BME280;10162;41.600;23.806;2022-08-07T07:00:52;94883.03;;;26.84;56.10
20003;BME280;10162;41.600;23.806;2022-08-07T07:03:22;94895.78;;;26.92;53.09
20003;BME280;10162;41.600;23.806;2022-08-07T07:05:48;94889.50;;;27.41;53.05
20003;BME280;10162;41.600;23.806;2022-08-07T07:08:14;94897.84;;;26.95;48.89
20003;BME280;10162;41.600;23.806;2022-08-07T07:10:40;94902.13;;;27.40;47.50
20003;BME280;10162;41.600;23.806;2022-08-07T07:16:18;94906.84;;;27.79;45.52
20003;BME280;10162;41.600;23.806;2022-08-07T07:18:55;94892.53;;;27.92;45.36
20003;BME280;10162;41.600;23.806;2022-08-07T07:22:00;94904.59;;;28.04;45.14
20003;BME280;10162;41.600;23.806;2022-08-07T07:24:26;94899.16;;;28.26;45.23
20003;BME280;10162;41.600;23.806;2022-08-07T07:26:55;94892.53;;;28.23;43.26
20003;BME280;10162;41.600;23.806;2022-08-07T07:29:24;94905.66;;;28.25;44.58
20003;BME280;10162;41.600;23.806;2022-08-07T07:32:15;94904.53;;;28.26;44.49
20003;BME280;10162;41.600;23.806;2022-08-07T07:34:44;94894.94;;;28.03;44.55
20003;BME280;10162;41.600;23.806;2022-08-07T07:37:12;94894.44;;;28.31;42.24
20003;BME280;10162;41.600;23.806;2022-08-07T07:39:39;94909.59;;;28.19;43.24
20003;BME280;10162;41.600;23.806;2022-08-07T07:42:14;94911.81;;;28.25;43.42
20003;BME280;10162;41.600;23.806;2022-08-07T07:44:43;94905.47;;;27.60;43.78
20003;BME280;10162;41.600;23.806;2022-08-07T07:47:11;94905.28;;;27.34;44.90
20003;BME280;10162;41.600;23.806;2022-08-07T07:49:39;94901.19;;;27.36;44.66
20003;BME280;10162;41.600;23.806;2022-08-07T07:52:07;94904.41;;;28.31;43.12
20003;BME280;10162;41.600;23.806;2022-08-07T07:54:35;94909.66;;;28.36;44.00
20003;BME280;10162;41.600;23.806;2022-08-07T07:57:02;94926.00;;;28.65;40.91
20003;BME280;10162;41.600;23.806;2022-08-07T07:59:29;94911.69;;;28.87;41.97
20003;BME280;10162;41.600;23.806;2022-08-07T08:02:10;94917.72;;;28.93;41.45
20003;BME280;10162;41.600;23.806;2022-08-07T08:04:37;94919.97;;;28.12;42.78
20003;BME280;10162;41.600;23.806;2022-08-07T08:07:04;94917.94;;;27.86;43.80
20003;BME280;10162;41.600;23.806;2022-08-07T08:09:30;94900.81;;;27.74;43.88
20003;BME280;10162;41.600;23.806;2022-08-07T08:12:00;94916.84;;;27.57;43.63
20003;BME280;10162;41.600;23.806;2022-08-07T08:14:32;94914.16;;;27.57;44.57
20003;BME280;10162;41.600;23.806;2022-08-07T08:17:00;94926.59;;;27.52;43.37
20003;BME280;10162;41.600;23.806;2022-08-07T08:19:27;94929.31;;;27.83;43.39
20003;BME280;10162;41.600;23.806;2022-08-07T08:22:09;94936.84;;;27.73;44.05
20003;BME280;10162;41.600;23.806;2022-08-07T08:24:55;94923.00;;;28.67;42.12
20003;BME280;10162;41.600;23.806;2022-08-07T08:27:41;94928.69;;;28.57;41.36
20003;BME280;10162;41.600;23.806;2022-08-07T08:30:10;94943.53;;;28.54;42.01
20003;BME280;10162;41.600;23.806;2022-08-07T08:32:54;94927.03;;;27.99;42.85
20003;BME280;10162;41.600;23.806;2022-08-07T08:35:24;94916.06;;;28.18;43.39
20003;BME280;10162;41.600;23.806;2022-08-07T08:37:58;94918.19;;;28.95;40.85
20003;BME280;10162;41.600;23.806;2022-08-07T08:40:29;94918.22;;;29.21;40.12
20003;BME280;10162;41.600;23.806;2022-08-07T08:43:36;94916.63;;;29.54;40.44
20003;BME280;10162;41.600;23.806;2022-08-07T08:49:11;94918.69;;;28.40;42.10
20003;BME280;10162;41.600;23.806;2022-08-07T08:52:12;94925.34;;;28.12;42.80
20003;BME280;10162;41.600;23.806;2022-08-07T08:57:41;94918.66;;;28.97;40.42
20003;BME280;10162;41.600;23.806;2022-08-07T09:00:10;94908.13;;;28.61;40.07
20003;BME280;10162;41.600;23.806;2022-08-07T09:02:55;94908.31;;;28.64;40.74
20003;BME280;10162;41.600;23.806;2022-08-07T09:05:45;94906.75;;;28.24;41.57
20003;BME280;10162;41.600;23.806;2022-08-07T09:08:16;94918.47;;;28.19;42.52
20003;BME280;10162;41.600;23.806;2022-08-07T09:14:04;94923.44;;;29.26;40.08
20003;BME280;10162;41.600;23.806;2022-08-07T09:16:56;94920.56;;;29.65;39.55
20003;BME280;10162;41.600;23.806;2022-08-07T09:30:09;94901.09;;;30.23;38.92
20003;BME280;10162;41.600;23.806;2022-08-07T09:35:39;94901.88;;;29.60;37.95
20003;BME280;10162;41.600;23.806;2022-08-07T09:41:40;94905.22;;;29.14;37.74
20003;BME280;10162;41.600;23.806;2022-08-07T09:44:20;94898.25;;;29.47;37.40
20003;BME280;10162;41.600;23.806;2022-08-07T10:07:24;94899.53;;;29.41;41.40
20003;BME280;10162;41.600;23.806;2022-08-07T10:20:27;94909.19;;;28.43;43.89
20003;BME280;10162;41.600;23.806;2022-08-07T10:25:43;94892.69;;;28.84;43.99
20003;BME280;10162;41.600;23.806;2022-08-07T10:31:29;94906.94;;;29.18;43.55
20003;BME280;10162;41.600;23.806;2022-08-07T10:34:14;94897.63;;;28.99;43.47
20003;BME280;10162;41.600;23.806;2022-08-07T10:42:45;94896.69;;;30.48;41.99
20003;BME280;10162;41.600;23.806;2022-08-07T10:45:26;94891.03;;;30.32;40.76
20003;BME280;10162;41.600;23.806;2022-08-07T10:48:33;94901.97;;;29.89;40.95
20003;BME280;10162;41.600;23.806;2022-08-07T10:53:46;94899.25;;;30.07;41.36
20003;BME280;10162;41.600;23.806;2022-08-07T10:56:26;94895.00;;;30.35;40.67
20003;BME280;10162;41.600;23.806;2022-08-07T11:01:48;94887.00;;;29.02;41.40
20003;BME280;10162;41.600;23.806;2022-08-07T11:04:39;94887.75;;;28.77;41.01
20003;BME280;10162;41.600;23.806;2022-08-07T11:07:30;94902.09;;;28.55;42.30
20003;BME280;10162;41.600;23.806;2022-08-07T11:10:07;94882.50;;;28.63;42.38
20003;BME280;10162;41.600;23.806;2022-08-07T11:12:51;94885.66;;;28.65;42.38
20003;BME280;10162;41.600;23.806;2022-08-07T11:15:24;94891.38;;;28.64;42.18
20003;BME280;10162;41.600;23.806;2022-08-07T11:18:13;94893.19;;;29.37;41.19
20003;BME280;10162;41.600;23.806;2022-08-07T11:26:30;94880.94;;;29.57;40.69
20003;BME280;10162;41.600;23.806;2022-08-07T11:29:05;94885.41;;;30.46;40.66
20003;BME280;10162;41.600;23.806;2022-08-07T11:31:52;94860.59;;;30.61;39.71
20003;BME280;10162;41.600;23.806;2022-08-07T11:40:12;94850.81;;;29.64;39.96
20003;BME280;10162;41.600;23.806;2022-08-07T11:43:34;94855.38;;;29.80;39.58
20003;BME280;10162;41.600;23.806;2022-08-07T11:51:37;94844.47;;;30.15;41.10
20003;BME280;10162;41.600;23.806;2022-08-07T11:54:32;94850.25;;;29.41;40.30
20003;BME280;10162;41.600;23.806;2022-08-07T11:57:20;94846.06;;;30.16;39.39
20003;BME280;10162;41.600;23.806;2022-08-07T12:00:15;94837.47;;;29.76;39.04
20003;BME280;10162;41.600;23.806;2022-08-07T12:05:44;94852.84;;;30.22;38.22
20003;BME280;10162;41.600;23.806;2022-08-07T12:08:21;94832.06;;;29.84;38.47
20003;BME280;10162;41.600;23.806;2022-08-07T12:10:53;94838.63;;;29.57;40.01
20003;BME280;10162;41.600;23.806;2022-08-07T12:16:21;94827.66;;;30.47;39.99
20003;BME280;10162;41.600;23.806;2022-08-07T12:19:29;94836.69;;;30.72;39.57
20003;BME280;10162;41.600;23.806;2022-08-07T12:22:09;94837.81;;;30.42;39.09
20003;BME280;10162;41.600;23.806;2022-08-07T12:27:47;94822.59;;;30.87;35.20
20003;BME280;10162;41.600;23.806;2022-08-07T12:30:15;94820.09;;;30.03;36.30
20003;BME280;10162;41.600;23.806;2022-08-07T12:32:51;94836.44;;;30.65;34.51
20003;BME280;10162;41.600;23.806;2022-08-07T12:35:20;94824.69;;;30.69;34.35
20003;BME280;10162;41.600;23.806;2022-08-07T12:37:49;94816.25;;;29.74;35.74
20003;BME280;10162;41.600;23.806;2022-08-07T12:40:19;94822.09;;;30.44;35.09
20003;BME280;10162;41.600;23.806;2022-08-07T12:42:46;94807.66;;;30.19;35.11
20003;BME280;10162;41.600;23.806;2022-08-07T12:45:21;94815.63;;;30.36;34.85
20003;BME280;10162;41.600;23.806;2022-08-07T12:48:06;94813.84;;;29.81;35.32
20003;BME280;10162;41.600;23.806;2022-08-07T12:53:28;94820.09;;;30.03;35.57
20003;BME280;10162;41.600;23.806;2022-08-07T12:56:09;94820.72;;;30.08;35.29
20003;BME280;10162;41.600;23.806;2022-08-07T12:58:39;94813.38;;;30.47;35.28
20003;BME280;10162;41.600;23.806;2022-08-07T13:07:08;94802.41;;;33.48;30.78
20003;BME280;10162;41.600;23.806;2022-08-07T13:15:49;94802.56;;;33.40;31.33
20003;BME280;10162;41.600;23.806;2022-08-07T13:18:38;94794.00;;;33.38;31.33
20003;BME280;10162;41.600;23.806;2022-08-07T13:21:12;94789.41;;;34.17;30.97
20003;BME280;10162;41.600;23.806;2022-08-07T13:24:18;94787.22;;;33.91;31.29
20003;BME280;10162;41.600;23.806;2022-08-07T13:26:52;94782.84;;;32.99;31.69
20003;BME280;10162;41.600;23.806;2022-08-07T13:29:35;94779.94;;;33.63;31.70
20003;BME280;10162;41.600;23.806;2022-08-07T13:32:09;94782.41;;;33.84;31.55
20003;BME280;10162;41.600;23.806;2022-08-07T13:34:47;94782.66;;;34.11;29.90
20003;BME280;10162;41.600;23.806;2022-08-07T13:37:36;94784.16;;;34.08;30.50
20003;BME280;10162;41.600;23.806;2022-08-07T13:42:48;94758.06;;;33.41;31.20
20003;BME280;10162;41.600;23.806;2022-08-07T13:45:17;94760.00;;;31.72;31.23
20003;BME280;10162;41.600;23.806;2022-08-07T13:47:44;94765.88;;;31.29;31.44
20003;BME280;10162;41.600;23.806;2022-08-07T13:50:13;94734.63;;;31.52;31.52
20003;BME280;10162;41.600;23.806;2022-08-07T13:52:42;94758.88;;;31.15;32.00
20003;BME280;10162;41.600;23.806;2022-08-07T13:55:12;94767.84;;;31.07;33.46
20003;BME280;10162;41.600;23.806;2022-08-07T13:57:41;94767.09;;;31.19;32.35
20003;BME280;10162;41.600;23.806;2022-08-07T14:00:08;94762.16;;;31.78;32.92
20003;BME280;10162;41.600;23.806;2022-08-07T14:02:41;94779.81;;;32.36;32.40
20003;BME280;10162;41.600;23.806;2022-08-07T14:05:11;94776.75;;;33.30;32.20
20003;BME280;10162;41.600;23.806;2022-08-07T14:07:45;94786.47;;;31.90;31.35
20003;BME280;10162;41.600;23.806;2022-08-07T14:10:12;94785.78;;;31.24;31.54
20003;BME280;10162;41.600;23.806;2022-08-07T14:18:06;94787.84;;;31.72;30.68
20003;BME280;10162;41.600;23.806;2022-08-07T14:20:36;94789.91;;;30.68;32.45
20003;BME280;10162;41.600;23.806;2022-08-07T14:23:14;94782.06;;;30.54;33.78
20003;BME280;10162;41.600;23.806;2022-08-07T14:25:43;94804.38;;;32.07;31.91
20003;BME280;10162;41.600;23.806;2022-08-07T14:28:13;94789.97;;;31.67;32.29
20003;BME280;10162;41.600;23.806;2022-08-07T14:30:44;94795.59;;;31.98;31.24
20003;BME280;10162;41.600;23.806;2022-08-07T14:33:12;94802.13;;;31.97;32.13
20003;BME280;10162;41.600;23.806;2022-08-07T14:35:40;94800.22;;;31.61;31.85
20003;BME280;10162;41.600;23.806;2022-08-07T14:38:07;94807.81;;;32.16;31.12
20003;BME280;10162;41.600;23.806;2022-08-07T14:40:34;94795.03;;;31.68;31.81
20003;BME280;10162;41.600;23.806;2022-08-07T14:43:05;94798.44;;;32.38;31.07
20003;BME280;10162;41.600;23.806;2022-08-07T14:45:39;94815.34;;;32.99;30.29
20003;BME280;10162;41.600;23.806;2022-08-07T14:48:08;94802.06;;;33.66;30.08
20003;BME280;10162;41.600;23.806;2022-08-07T14:50:40;94782.53;;;33.16;30.61
20003;BME280;10162;41.600;23.806;2022-08-07T14:53:07;94822.56;;;34.57;29.65
20003;BME280;10162;41.600;23.806;2022-08-07T14:55:34;94812.81;;;34.72;29.14
20003;BME280;10162;41.600;23.806;2022-08-07T14:58:01;94817.50;;;33.49;29.81
20003;BME280;10162;41.600;23.806;2022-08-07T15:00:31;94787.81;;;34.66;28.77
20003;BME280;10162;41.600;23.806;2022-08-07T15:03:03;94800.81;;;33.47;30.53
20003;BME280;10162;41.600;23.806;2022-08-07T15:05:29;94798.44;;;34.71;29.39
20003;BME280;10162;41.600;23.806;2022-08-07T15:07:56;94795.69;;;33.58;30.00
20003;BME280;10162;41.600;23.806;2022-08-07T15:10:26;94798.50;;;32.78;31.18
20003;BME280;10162;41.600;23.806;2022-08-07T15:13:00;94812.31;;;35.43;29.02
20003;BME280;10162;41.600;23.806;2022-08-07T15:15:41;94828.06;;;35.53;28.57
20003;BME280;10162;41.600;23.806;2022-08-07T15:18:18;94833.00;;;35.29;29.02
20003;BME280;10162;41.600;23.806;2022-08-07T15:20:46;94791.59;;;33.95;30.19
20003;BME280;10162;41.600;23.806;2022-08-07T15:23:26;94797.72;;;34.94;29.92
20003;BME280;10162;41.600;23.806;2022-08-07T15:25:58;94797.56;;;35.44;29.01
20003;BME280;10162;41.600;23.806;2022-08-07T15:28:28;94798.63;;;33.37;31.33
20003;BME280;10162;41.600;23.806;2022-08-07T15:31:00;94790.72;;;33.32;32.16
20003;BME280;10162;41.600;23.806;2022-08-07T15:33:27;94797.97;;;34.85;30.39
20003;BME280;10162;41.600;23.806;2022-08-07T15:35:55;94800.47;;;35.74;29.22
20003;BME280;10162;41.600;23.806;2022-08-07T15:38:27;94786.00;;;34.20;29.48
20003;BME280;10162;41.600;23.806;2022-08-07T15:40:55;94802.16;;;32.98;31.15
20003;BME280;10162;41.600;23.806;2022-08-07T15:43:26;94807.56;;;32.09;32.60
20003;BME280;10162;41.600;23.806;2022-08-07T15:45:55;94784.72;;;33.11;30.76
20003;BME280;10162;41.600;23.806;2022-08-07T15:48:31;94790.19;;;33.27;31.50
20003;BME280;10162;41.600;23.806;2022-08-07T15:51:07;94801.44;;;31.31;33.74
20003;BME280;10162;41.600;23.806;2022-08-07T15:53:44;94784.72;;;31.16;32.68
20003;BME280;10162;41.600;23.806;2022-08-07T15:56:10;94805.38;;;30.29;34.25
20003;BME280;10162;41.600;23.806;2022-08-07T15:58:47;94797.06;;;30.85;34.50
20003;BME280;10162;41.600;23.806;2022-08-07T16:05:05;94791.13;;;30.29;35.02
20003;BME280;10162;41.600;23.806;2022-08-07T16:07:40;94787.19;;;29.42;35.06
20003;BME280;10162;41.600;23.806;2022-08-07T16:10:12;94797.38;;;29.74;35.14
20003;BME280;10162;41.600;23.806;2022-08-07T16:25:53;94847.06;;;28.70;36.63
20003;BME280;10162;41.600;23.806;2022-08-07T16:35:45;94854.22;;;28.74;38.79
20003;BME280;10162;41.600;23.806;2022-08-07T16:40:57;94859.91;;;28.73;38.96
20003;BME280;10162;41.600;23.806;2022-08-07T16:43:56;94862.13;;;28.80;38.27
20003;BME280;10162;41.600;23.806;2022-08-07T17:06:25;94889.44;;;28.08;40.58
20003;BME280;10162;41.600;23.806;2022-08-07T17:09:19;94882.56;;;27.40;43.85
20003;BME280;10162;41.600;23.806;2022-08-07T17:11:56;94877.84;;;27.01;44.89
20003;BME280;10162;41.600;23.806;2022-08-07T17:14:55;94882.63;;;27.04;42.29
20003;BME280;10162;41.600;23.806;2022-08-07T17:20:30;94892.94;;;26.61;45.73
20003;BME280;10162;41.600;23.806;2022-08-07T17:27:02;94898.53;;;27.23;42.52
20003;BME280;10162;41.600;23.806;2022-08-07T17:36:27;94898.31;;;27.10;43.61
20003;BME280;10162;41.600;23.806;2022-08-07T17:39:07;94917.00;;;27.02;43.41
20003;BME280;10162;41.600;23.806;2022-08-07T17:45:26;94916.19;;;26.65;45.22
20003;BME280;10162;41.600;23.806;2022-08-07T17:48:02;94922.91;;;26.77;44.38
20003;BME280;10162;41.600;23.806;2022-08-07T17:50:44;94934.06;;;26.56;45.02
20003;BME280;10162;41.600;23.806;2022-08-07T17:57:05;94942.00;;;26.75;44.84
20003;BME280;10162;41.600;23.806;2022-08-07T17:59:49;94965.66;;;26.59;45.64
20003;BME280;10162;41.600;23.806;2022-08-07T18:06:05;94959.97;;;26.33;45.56
20003;BME280;10162;41.600;23.806;2022-08-07T18:11:31;94970.91;;;26.37;45.46
20003;BME280;10162;41.600;23.806;2022-08-07T18:14:15;94976.34;;;26.32;45.79